The Pas Airport
CYQD : now visible

Airfield :











YOU CAN JOIN US ON...

 
LOGIN :

Register | Disclaimer

   EN    FR    IT 

 









Legend :    VFR   Marginal VFR   IFR   Intensive IFR   Very Intensive IFR
Visi :
Ceiling :
>= 8 km
>= 3000ft
5 to 8 km
1000 to 3000 ft
1500m to 5 km
500 to 1000 ft
800 to 1500m
200 to 500 ft
< 800m
< 200 ft
Symbols :   Thunderstorms  Fog  Heavy snow  Heavy precipitations  Wind > 20 kt






- Airport Elevation : 887 ft
- IATA code : YQD


CYQD - The Pas

CURRENT METAR :
  • 071600Z AUTO 18011G20KT 9SM BKN100 OVC120 20/11 A2988 RMK SLP123 DENSITY ALT 1800FT

EXPIRED METARs :
  • 071500Z AUTO 18015G23KT 9SM OVC110 18/10 A2988 RMK SLP125 DENSITY ALT 1500FT
  • 071400Z AUTO 18013G20KT 9SM SCT120 BKN150 16/09 A2991 RMK SLP132 DENSITY ALT 1300FT

TAF TAF CYQD
Valid from the 07 at 13:00 until the 08 at 01:00 UTC


071240Z 0713/0801 18008G18KT P6SM BKN160
FM071500 20015KT P6SM SCT090
FM072200 24012KT P6SM SCT050
TEMPO 0722/0801 BKN050 RMK FCST BASED ON AUTO OBS. NXT FCST BY 071900Z
CZWG FIR / North America



MET'MAP, your aeronautical weather chart ! - Copyright ORBIFLY December 2007 - Disclaimer

ORBIFLY MET'MAP TEAM :

Programming & Development : Alexandra Zaïnal
Original concept : Baudouin d'Aumeries
Technical & hardware support : Manuel Goepfert
Assistance : Marc-Olivier Méhu




SOURCES & CREDITS :

   NOAA       Earth
Advisory